EPKKEPKT

Guest
Details From EPKK - Balice
To EPKT - Pyrzowice
Flight Number -
Tags Routegen Generated
Created
Modified
Stats Distance 39 nm / 72 km
Max Altitude 100 ft / 30 m
Waypoints 5
Social Downloads 6
Likes 0
Share VATSIM

Download

Looking for another format? Having issues loading an existing format? Contact us
Advertisement - Login to hide

Notes

Departing runway 25 EPKK. Arriving runway 9 EPKT.

Route

EPKK +50.06_+019.66 +50.27_+019.43 +50.47_+019.21 EPKT

ID Type Via Altitude Latitude Longitude Leg Dist Tot Dist Heading (true) Name
O EPKK APT - 0 ft / 0 m 50.07540˚ 19.76809˚ - 0 nm - -
+50.06_+019.66 LATLON - 100 ft / 30 m 50.06002˚ 19.65793˚ 4 nm 4 nm 258° / 258° -
+50.27_+019.43 LATLON - 100 ft / 30 m 50.26696˚ 19.43285˚ 15 nm 19 nm 325° / 325° -
+50.47_+019.21 LATLON - 100 ft / 30 m 50.47389˚ 19.20777˚ 15 nm 34 nm 325° / 325° -
O EPKT APT - 0 ft / 0 m 50.47422˚ 19.09407˚ 4 nm 38 nm 270° / 270° -

Altitude Profile

Advertisement - Login to hide

EPKK

Details ICAO EPKK (KRK)
Name BALICE
Region Poland
Timezone Europe/Warsaw (UTC+1.0)
Stats Elevation 791 ft / 241 m (AMSL)
Location 50.077821° 19.785503°
Runways 1
Magnetic Variation 5.201° E

METAR

EPKK 130330Z 24008KT CAVOK 03/M02 Q1016

Decode

TAF

TAF EPKK 122330Z 1300/1324 25010KT 9999 BKN030 TEMPO 1300/1306 BKN014 BECMG 1309/1312 VRB02KT

Decode

Departure Runways

ID Width Length Bearing (true) Bearing (mag) Surface Threshold Offset Overrun Length
07 197 ft / 60 m 8,343 ft / 2,543 m 77.75° 72.55° Concrete 0 ft / 0 m 0 ft / 0 m
25 197 ft / 60 m 8,343 ft / 2,543 m 257.77° 252.57° Concrete 784 ft / 239 m 0 ft / 0 m

EPKT

Details ICAO EPKT (KTW)
Name PYRZOWICE
Region Poland
Timezone Europe/Warsaw (UTC+1.0)
Stats Elevation 995 ft / 303 m (AMSL)
Location 50.474263° 19.074356°
Runways 1
Magnetic Variation 5.084° E

METAR

EPKT 130330Z 25008KT CAVOK 00/M04 Q1015

Decode

TAF

TAF EPKT 122330Z 1300/1324 25010KT 9999 BKN030 PROB30 TEMPO 1300/1306 VRB02KT BKN014 BECMG 1309/1312 18010KT

Decode

Destination Runways

ID Width Length Bearing (true) Bearing (mag) Surface Threshold Offset Overrun Length
09 195 ft / 59 m 9,156 ft / 2,791 m 90.18° 85.10° Concrete 0 ft / 0 m 0 ft / 0 m
27 195 ft / 59 m 9,156 ft / 2,791 m 270.22° 265.14° Concrete 0 ft / 0 m 0 ft / 0 m

Approach Navaids

Runway Type Ident Frequency Range Bearing (true) Bearing (mag) Slope Elevation
27 Localiser KAT 109.90 MHz 18 nm / 33 km 270.18° 265.09° - 995 ft / 303 m (AMSL)
27 Glidescope KAT 109.90 MHz 10 nm / 19 km 270.20° 265.12° 3.20° 995 ft / 303 m (AMSL)

Popular Alternatives